Observations for Trim Patrick St
| Time | AQI | Temp °C | Hum % | Pres Pa | CO μg/m³ | H₂S μg/m³ | NO μg/m³ | NO₂ μg/m³ | O₃ μg/m³ | SO₂ μg/m³ | PM1 μg/m³ | PM2.5 μg/m³ | PM10 μg/m³ |
|---|---|---|---|---|---|---|---|---|---|---|---|---|---|
| Friday 31 July 2026 | |||||||||||||
| 22:20 | 3 | 16.2 | 59 | 73,532 | 0.07 | 8.34 | 1.44 | 20.54 | 44.3 | 0 | 4.57 | 10.33 | 11.36 |
| 22:19 | 3 | 16.2 | 61 | 73,473 | 0.06 | 7.87 | 2.02 | 27.18 | 47.78 | 0 | 2.86 | 7.93 | 8.73 |
| 22:17 | 3 | 16.3 | 60 | 73,367 | 0.09 | 9.57 | 1.35 | 27.41 | 47.9 | 0 | 4.57 | 9.46 | 10.41 |
| 22:13 | 3 | 16.4 | 61 | 73,006 | 0.03 | 8.55 | 1.23 | 19.6 | 54.02 | 0 | 5.43 | 10.17 | 11.18 |
| 22:09 | 3 | 16.5 | 60 | 72,626 | 0.02 | 10.14 | 1.82 | 37.69 | 42.78 | 0.04 | 3.71 | 7.98 | 8.78 |
| 22:08 | 3 | 16.6 | 60 | 72,517 | 0.02 | 9.41 | 1.75 | 27.59 | 51.3 | 0.34 | 3.71 | 8.74 | 9.61 |
| 22:07 | 3 | 16.6 | 60 | 72,400 | 0.02 | 8.68 | 1.45 | 24.2 | 50.86 | 0.1 | 2 | 7.29 | 8.02 |
| 22:06 | 3 | 16.6 | 60 | 72,308 | 0.02 | 8.89 | 1.28 | 27.08 | 49.67 | 0.11 | 2.86 | 7.27 | 8 |
| 22:05 | 3 | 16.6 | 60 | 72,241 | 0.02 | 8.68 | 1.7 | 24.63 | 50.05 | 0.16 | 2 | 7.3 | 8.03 |
| 22:04 | 3 | 16.7 | 59 | 72,159 | 0.02 | 8.58 | 1.66 | 27.35 | 50.7 | 0.2 | 2 | 7.31 | 8.04 |
| 22:03 | 3 | 16.7 | 60 | 72,073 | 0.03 | 8.97 | 1.45 | 37.83 | 39.01 | 0 | 3.71 | 8.78 | 9.66 |
| 22:02 | 3 | 16.7 | 59 | 71,990 | 0.03 | 9.54 | 1.27 | 39.53 | 35.31 | 1.69 | 2 | 7.31 | 8.04 |
| 22:01 | 3 | 16.8 | 59 | 71,911 | 0.01 | 8.84 | 1.28 | 32.4 | 48.09 | 0.67 | 2.86 | 7.36 | 8.1 |
| 22:00 | 3 | 16.8 | 59 | 71,802 | 0.02 | 8.94 | 1.3 | 21.48 | 55.39 | 0.29 | 2.86 | 7.36 | 8.1 |
| 21:59 | 3 | 16.8 | 58 | 71,692 | 0.01 | 9.31 | 1.13 | 19.44 | 53.83 | 0 | 2.86 | 8.16 | 8.97 |
| 21:58 | 3 | 16.9 | 56 | 71,575 | 0.02 | 8.55 | 1.07 | 20.14 | 42.39 | 0.26 | 2.86 | 6.81 | 7.49 |
| 21:57 | 3 | 16.9 | 58 | 71,444 | 0.02 | 9.54 | 1.18 | 28.65 | 51.26 | 0.4 | 2.86 | 7.4 | 8.14 |
| 21:56 | 3 | 16.9 | 58 | 71,330 | 0 | 8.29 | 1.26 | 24.07 | 51.67 | 0.24 | 2 | 5.9 | 6.49 |
| 21:55 | 3 | 16.9 | 58 | 71,234 | 0 | 7.71 | 1.22 | 23 | 51.33 | 0.12 | 3.71 | 8.18 | 8.99 |
| 21:54 | 3 | 17 | 58 | 71,140 | 0 | 8.39 | 1.49 | 21.13 | 53.73 | 0.35 | 2 | 5.92 | 6.51 |